createdAt,value
2019-04-04T00:02:06.845Z,99176.59
2019-04-04T00:05:10.466Z,99182.98
2019-04-04T00:08:14.304Z,99178.37
2019-04-04T00:11:17.930Z,99172.89
2019-04-04T00:14:21.780Z,99180.09
2019-04-04T00:17:25.535Z,99167.09
2019-04-04T00:20:31.513Z,99162.91
2019-04-04T00:23:37.610Z,99157.84
2019-04-04T00:26:41.970Z,99161.84
2019-04-04T00:29:46.050Z,99154.59
2019-04-04T00:32:52.652Z,99160.48
2019-04-04T00:35:56.230Z,99155.96
2019-04-04T00:38:59.989Z,99151.62
2019-04-04T00:42:03.714Z,99157.80
2019-04-04T00:45:08.329Z,99144.61
2019-04-04T00:48:12.164Z,99150.44
2019-04-04T00:51:15.817Z,99150.70
2019-04-04T00:54:19.446Z,99146.89
2019-04-04T00:57:23.124Z,99144.00
2019-04-04T01:00:26.884Z,99137.70
2019-04-04T01:03:30.809Z,99132.58
2019-04-04T01:06:34.574Z,99136.91
2019-04-04T01:09:38.482Z,99140.57
2019-04-04T01:12:42.118Z,99138.22
2019-04-04T01:15:45.801Z,99127.95
2019-04-04T01:18:49.443Z,99129.42
2019-04-04T01:21:53.925Z,99124.30
2019-04-04T01:24:59.061Z,99120.23
2019-04-04T01:28:03.108Z,99114.70
2019-04-04T01:31:06.776Z,99120.00
2019-04-04T01:34:10.358Z,99110.64
2019-04-04T01:37:14.070Z,99114.97
2019-04-04T01:40:17.969Z,99109.05
2019-04-04T01:43:21.747Z,99111.78
2019-04-04T01:46:25.639Z,99107.05
2019-04-04T01:49:29.378Z,99098.94
2019-04-04T01:52:33.079Z,99099.91
2019-04-04T01:55:37.164Z,99100.08
2019-04-04T01:58:41.776Z,99100.73
2019-04-04T02:01:46.883Z,99097.88
2019-04-04T02:04:51.188Z,99096.38
2019-04-04T02:07:54.826Z,99094.92
2019-04-04T02:10:58.516Z,99099.41
2019-04-04T02:14:02.286Z,99105.50
2019-04-04T02:17:05.908Z,99099.54
2019-04-04T02:20:09.539Z,99103.06
2019-04-04T02:23:13.288Z,99099.73
2019-04-04T02:26:17.014Z,99098.08
2019-04-04T02:29:20.804Z,99093.75
2019-04-04T02:32:27.526Z,99100.86
2019-04-04T02:35:31.306Z,99095.31
2019-04-04T02:38:35.283Z,99093.31
2019-04-04T02:41:39.095Z,99101.27
2019-04-04T02:44:42.779Z,99090.94
2019-04-04T02:47:50.190Z,99087.12
2019-04-04T02:50:51.775Z,99095.37
2019-04-04T02:53:55.504Z,99087.22
2019-04-04T02:56:59.160Z,99080.67
2019-04-04T03:00:02.779Z,99078.97
2019-04-04T03:03:09.170Z,99078.06
2019-04-04T03:06:11.836Z,99078.86
2019-04-04T03:09:15.644Z,99079.93
2019-04-04T03:12:19.299Z,99072.27
2019-04-04T03:15:23.038Z,99075.80
2019-04-04T03:18:26.701Z,99073.69
2019-04-04T03:21:30.319Z,99072.62
2019-04-04T03:24:33.997Z,99077.80
2019-04-04T03:27:37.776Z,99078.16
2019-04-04T03:30:41.645Z,99082.84
2019-04-04T03:33:45.286Z,99079.22
2019-04-04T03:36:49.022Z,99086.16
2019-04-04T03:39:53.369Z,99081.64
2019-04-04T03:42:57.363Z,99089.84
2019-04-04T03:46:01.735Z,99080.67
2019-04-04T03:49:05.405Z,99096.33
2019-04-04T03:52:11.312Z,99092.35
2019-04-04T03:55:14.545Z,99088.93
2019-04-04T03:58:18.514Z,99078.16
2019-04-04T04:01:22.098Z,99082.73
2019-04-04T04:04:28.129Z,99072.38
2019-04-04T04:07:31.592Z,99079.32
2019-04-04T04:10:35.288Z,99078.91
2019-04-04T04:13:39.010Z,99070.00
2019-04-04T04:16:42.617Z,99077.10
2019-04-04T04:19:46.432Z,99078.86
2019-04-04T04:22:50.926Z,99087.11
2019-04-04T04:25:55.244Z,99090.64
2019-04-04T04:28:58.886Z,99089.33
2019-04-04T04:32:02.632Z,99100.09
2019-04-04T04:35:08.552Z,99094.35
2019-04-04T04:38:12.214Z,99101.16
2019-04-04T04:41:19.897Z,99100.89
2019-04-04T04:44:21.971Z,99095.52
2019-04-04T04:47:25.774Z,99090.48
2019-04-04T04:50:29.691Z,99095.02
2019-04-04T04:53:33.494Z,99091.66
2019-04-04T04:56:37.330Z,99099.59
2019-04-04T04:59:44.359Z,99098.73
2019-04-04T05:02:46.692Z,99101.16
2019-04-04T05:05:50.316Z,99102.37
2019-04-04T05:08:54.025Z,99106.10
2019-04-04T05:11:57.648Z,99100.81
2019-04-04T05:15:02.222Z,99104.18
2019-04-04T05:18:06.142Z,99099.19
2019-04-04T05:21:09.998Z,99100.20
2019-04-04T05:24:13.598Z,99095.46
2019-04-04T05:27:17.385Z,99090.81
2019-04-04T05:30:21.076Z,99090.64
2019-04-04T05:33:26.887Z,99085.09
2019-04-04T05:36:30.087Z,99086.95
2019-04-04T05:39:33.821Z,99089.73
2019-04-04T05:42:37.516Z,99090.16
2019-04-04T05:45:41.288Z,99087.96
2019-04-04T05:48:44.878Z,99086.84
2019-04-04T05:51:49.133Z,99089.94
2019-04-04T05:54:52.936Z,99088.63
2019-04-04T05:57:56.541Z,99089.03
2019-04-04T06:01:01.866Z,99086.89
2019-04-04T06:04:06.301Z,99099.55
2019-04-04T06:07:10.201Z,99098.20
2019-04-04T06:10:13.835Z,99099.98
2019-04-04T06:13:17.445Z,99094.84
2019-04-04T06:16:21.122Z,99086.09
2019-04-04T06:19:24.812Z,99089.16
2019-04-04T06:22:28.579Z,99091.14
2019-04-04T06:25:35.662Z,99087.17
2019-04-04T06:28:37.562Z,99080.34
2019-04-04T06:31:41.261Z,99086.03
2019-04-04T06:34:45.242Z,99077.83
2019-04-04T06:37:51.030Z,99065.39
2019-04-04T06:40:54.524Z,99069.48
2019-04-04T06:43:58.196Z,99067.63
2019-04-04T06:47:02.292Z,99067.95
2019-04-04T06:50:08.109Z,99061.92
2019-04-04T06:53:12.172Z,99063.44
2019-04-04T06:56:15.848Z,99056.78
2019-04-04T06:59:19.669Z,99055.85
2019-04-04T07:02:24.010Z,99052.53
2019-04-04T07:05:28.221Z,99058.23
2019-04-04T07:08:31.836Z,99063.25
2019-04-04T07:11:35.905Z,99063.77
2019-04-04T07:14:45.696Z,99057.47
2019-04-04T07:17:45.003Z,99059.48
2019-04-04T07:20:48.980Z,99070.17
2019-04-04T07:23:52.715Z,99064.13
2019-04-04T07:26:56.336Z,99074.39
2019-04-04T07:30:00.099Z,99061.19
2019-04-04T07:33:03.780Z,99067.53
2019-04-04T07:36:07.458Z,99064.20
2019-04-04T07:39:12.401Z,99060.94
2019-04-04T07:42:16.224Z,99056.89
2019-04-04T07:45:20.056Z,99052.55
2019-04-04T07:48:23.838Z,99064.77
2019-04-04T07:51:28.059Z,99060.22
2019-04-04T07:54:32.927Z,99064.69
2019-04-04T07:57:36.507Z,99057.06
2019-04-04T08:00:40.143Z,99054.77
2019-04-04T08:03:43.802Z,99067.21
2019-04-04T08:06:47.477Z,99062.26
2019-04-04T08:09:51.164Z,99062.28
2019-04-04T08:12:55.005Z,99056.14
2019-04-04T08:15:58.660Z,99050.47
2019-04-04T08:19:02.354Z,99055.42
2019-04-04T08:22:06.101Z,99051.59
2019-04-04T08:25:11.506Z,99051.98
2019-04-04T08:28:15.236Z,99041.66
2019-04-04T08:31:20.495Z,99039.52
2019-04-04T08:34:24.184Z,99038.95
2019-04-04T08:37:27.908Z,99037.46
2019-04-04T08:40:31.538Z,99036.45
2019-04-04T08:43:35.248Z,99043.11
2019-04-04T08:46:38.921Z,99032.37
2019-04-04T08:49:42.588Z,99043.83
2019-04-04T08:52:47.165Z,99035.22
2019-04-04T08:55:50.984Z,99041.86
2019-04-04T08:58:54.702Z,99034.02
2019-04-04T09:01:58.432Z,99042.36
2019-04-04T09:05:11.860Z,99043.53
2019-04-04T09:08:07.460Z,99045.08
2019-04-04T09:11:11.138Z,99032.48
2019-04-04T09:14:14.977Z,99024.87
2019-04-04T09:17:18.638Z,99020.48
2019-04-04T09:20:22.322Z,99020.48
2019-04-04T09:23:26.096Z,99013.78
2019-04-04T09:26:29.748Z,99016.97
2019-04-04T09:29:33.364Z,99001.13
2019-04-04T09:32:37.019Z,99007.20
2019-04-04T09:35:40.639Z,99009.34
2019-04-04T09:38:44.348Z,99009.34
2019-04-04T09:41:47.965Z,99005.51
2019-04-04T09:44:51.675Z,99006.77
2019-04-04T09:47:55.617Z,99009.74
2019-04-04T09:50:59.227Z,99000.81
2019-04-04T09:54:02.990Z,98988.47
2019-04-04T09:57:06.624Z,98995.42
2019-04-04T10:00:12.694Z,98982.30
2019-04-04T10:03:16.424Z,98993.61
2019-04-04T10:06:20.550Z,98987.68
2019-04-04T10:09:24.431Z,98998.70
2019-04-04T10:12:29.699Z,98995.61
2019-04-04T10:15:33.786Z,99007.37
2019-04-04T10:18:37.644Z,99000.62
2019-04-04T10:21:41.514Z,98994.63
2019-04-04T10:24:45.372Z,98994.63
2019-04-04T10:27:49.134Z,98995.80
2019-04-04T10:30:52.930Z,98995.80
2019-04-04T10:33:56.887Z,99004.88
2019-04-04T10:37:00.636Z,98993.94
2019-04-04T10:40:05.996Z,98996.09
2019-04-04T10:43:09.888Z,98991.18
2019-04-04T10:46:13.743Z,98994.24
2019-04-04T10:49:17.457Z,98992.23
2019-04-04T10:52:21.529Z,98995.09
2019-04-04T10:55:25.569Z,98986.09
2019-04-04T10:58:29.448Z,98981.56
2019-04-04T11:01:33.299Z,98981.72
2019-04-04T11:04:37.361Z,98983.41
2019-04-04T11:07:41.022Z,98983.41
2019-04-04T11:10:44.677Z,98975.69
2019-04-04T11:13:48.547Z,98979.39
2019-04-04T11:16:52.154Z,98970.73
2019-04-04T11:19:56.124Z,98981.69
2019-04-04T11:22:59.769Z,98967.08
2019-04-04T11:26:03.556Z,98985.16
2019-04-04T11:29:07.429Z,98968.91
2019-04-04T11:32:11.177Z,98968.84
2019-04-04T11:35:15.094Z,98966.86
2019-04-04T11:38:19.083Z,98974.29
2019-04-04T11:41:22.751Z,98964.36
2019-04-04T11:44:26.574Z,98960.98
2019-04-04T11:47:31.052Z,98953.72
2019-04-04T11:50:34.798Z,98956.77
2019-04-04T11:53:38.480Z,98963.16
2019-04-04T11:56:42.401Z,98956.38
2019-04-04T11:59:46.300Z,98947.58
2019-04-04T12:02:50.376Z,98960.25
2019-04-04T12:05:54.306Z,98950.84
2019-04-04T12:08:58.122Z,98940.79
2019-04-04T12:12:01.842Z,98947.17
2019-04-04T12:15:08.379Z,98947.53
2019-04-04T12:18:12.203Z,98938.46
2019-04-04T12:21:15.931Z,98933.29
2019-04-04T12:24:19.709Z,98920.59
2019-04-04T12:27:23.535Z,98927.97
2019-04-04T12:30:27.304Z,98921.29
2019-04-04T12:33:31.106Z,98926.13
2019-04-04T12:36:35.087Z,98915.48
2019-04-04T12:39:38.675Z,98911.67
2019-04-04T12:42:42.420Z,98910.98
2019-04-04T12:45:46.121Z,98915.54
2019-04-04T12:48:50.330Z,98911.09
2019-04-04T12:51:53.988Z,98903.69
2019-04-04T12:54:57.847Z,98905.16
2019-04-04T12:58:01.714Z,98910.72
2019-04-04T13:01:05.465Z,98913.84
2019-04-04T13:04:09.145Z,98906.49
2019-04-04T13:07:12.848Z,98900.69
2019-04-04T13:10:16.476Z,98904.53
2019-04-04T13:13:20.198Z,98904.30
2019-04-04T13:16:24.215Z,98909.36
2019-04-04T13:19:28.077Z,98900.56
2019-04-04T13:22:31.679Z,98893.05
2019-04-04T13:25:35.470Z,98898.53
2019-04-04T13:28:39.179Z,98895.87
2019-04-04T13:31:43.061Z,98890.39
2019-04-04T13:34:58.765Z,98901.40
2019-04-04T13:37:52.317Z,98898.61
2019-04-04T13:40:56.102Z,98901.16
2019-04-04T13:44:00.398Z,98892.17
2019-04-04T13:47:04.111Z,98906.17
2019-04-04T13:50:08.747Z,98894.31
2019-04-04T13:53:12.377Z,98892.98
2019-04-04T13:56:16.171Z,98896.37
2019-04-04T13:59:19.890Z,98898.67
2019-04-04T14:02:23.664Z,98887.46
2019-04-04T14:05:27.862Z,98883.07
2019-04-04T14:08:31.902Z,98877.74
2019-04-04T14:11:35.711Z,98877.27
2019-04-04T14:14:39.734Z,98881.62
2019-04-04T14:17:44.099Z,98887.91
2019-04-04T14:20:47.974Z,98875.81
2019-04-04T14:23:53.030Z,98869.64
2019-04-04T14:26:57.080Z,98867.95
2019-04-04T14:30:00.763Z,98861.42
2019-04-04T14:33:04.402Z,98855.38
2019-04-04T14:36:08.101Z,98865.30
2019-04-04T14:39:12.611Z,98858.40
2019-04-04T14:42:16.683Z,98867.34
2019-04-04T14:45:20.544Z,98866.37
2019-04-04T14:48:24.693Z,98862.88
2019-04-04T14:51:28.774Z,98862.02
2019-04-04T14:54:32.442Z,98857.92
2019-04-04T14:57:36.149Z,98848.52
2019-04-04T15:00:40.327Z,98861.42
2019-04-04T15:03:44.716Z,98854.29
2019-04-04T15:06:51.176Z,98855.90
2019-04-04T15:09:55.688Z,98854.56
2019-04-04T15:12:59.617Z,98845.86
2019-04-04T15:16:15.018Z,98857.72
2019-04-04T15:19:19.245Z,98861.95
2019-04-04T15:22:23.075Z,98862.31
2019-04-04T15:25:26.871Z,98869.56
2019-04-04T15:28:30.767Z,98856.55
2019-04-04T15:31:34.490Z,98863.80
2019-04-04T15:34:38.413Z,98859.20
2019-04-04T15:37:42.435Z,98870.09
2019-04-04T15:40:46.132Z,98851.70
2019-04-04T15:43:51.512Z,98855.58
2019-04-04T15:46:55.377Z,98857.30
2019-04-04T15:49:59.194Z,98861.50
2019-04-04T15:53:05.702Z,98870.69
2019-04-04T15:56:09.884Z,98878.81
2019-04-04T15:59:13.692Z,98871.08
2019-04-04T16:02:17.642Z,98878.59
2019-04-04T16:05:21.381Z,98870.86
2019-04-04T16:08:25.213Z,98873.14
2019-04-04T16:11:28.987Z,98876.55
2019-04-04T16:14:32.772Z,98886.21
2019-04-04T16:17:36.649Z,98870.50
2019-04-04T16:20:40.665Z,98878.24
2019-04-04T16:23:44.474Z,98887.20
2019-04-04T16:26:48.281Z,98887.06
2019-04-04T16:29:51.930Z,98890.22
2019-04-04T16:32:55.796Z,98885.38
2019-04-04T16:35:59.915Z,98889.34
2019-04-04T16:39:05.368Z,98889.70
2019-04-04T16:42:09.276Z,98899.84
2019-04-04T16:45:13.158Z,98898.38
2019-04-04T16:48:16.912Z,98902.59
2019-04-04T16:51:20.583Z,98909.16
2019-04-04T16:54:24.234Z,98918.42
2019-04-04T16:57:28.336Z,98911.67
2019-04-04T17:00:32.322Z,98914.41
2019-04-04T17:03:36.174Z,98915.20
2019-04-04T17:06:39.912Z,98925.66
2019-04-04T17:09:43.566Z,98918.23
2019-04-04T17:12:48.237Z,98924.70
2019-04-04T17:15:52.013Z,98924.42
2019-04-04T17:18:55.754Z,98934.11
2019-04-04T17:21:59.661Z,98932.13
2019-04-04T17:25:03.558Z,98931.84
2019-04-04T17:28:07.787Z,98936.07
2019-04-04T17:31:11.771Z,98939.17
2019-04-04T17:34:15.799Z,98942.07
2019-04-04T17:37:20.188Z,98952.27
2019-04-04T17:40:23.973Z,98955.05
2019-04-04T17:43:28.703Z,98957.59
2019-04-04T17:46:32.749Z,98963.90
2019-04-04T17:49:36.650Z,98966.70
2019-04-04T17:52:40.317Z,98974.20
2019-04-04T17:55:44.274Z,98968.58
2019-04-04T17:58:48.530Z,98966.88
2019-04-04T18:01:52.222Z,98976.57
2019-04-04T18:04:56.140Z,98977.05
2019-04-04T18:07:59.978Z,98981.31
2019-04-04T18:11:04.793Z,98983.16
2019-04-04T18:14:08.976Z,98983.86
2019-04-04T18:17:13.064Z,98991.24
2019-04-04T18:20:17.129Z,98990.72
2019-04-04T18:23:21.520Z,98990.91
2019-04-04T18:26:29.092Z,98994.16
2019-04-04T18:29:33.004Z,99003.73
2019-04-04T18:32:37.048Z,99006.88
2019-04-04T18:35:40.910Z,99002.96
2019-04-04T18:38:45.118Z,99012.14
2019-04-04T18:41:49.100Z,99014.44
2019-04-04T18:44:53.022Z,99020.17
2019-04-04T18:47:57.734Z,99016.52
2019-04-04T18:51:01.522Z,99019.91
2019-04-04T18:54:05.361Z,99018.42
2019-04-04T18:57:08.994Z,99025.41
2019-04-04T19:00:12.860Z,99022.94
2019-04-04T19:03:16.695Z,99027.47
2019-04-04T19:06:20.454Z,99029.91
2019-04-04T19:09:24.251Z,99037.28
2019-04-04T19:12:28.053Z,99039.54
2019-04-04T19:15:31.881Z,99043.13
2019-04-04T19:18:35.660Z,99045.47
2019-04-04T19:21:39.266Z,99038.11
2019-04-04T19:24:43.158Z,99044.06
2019-04-04T19:27:46.928Z,99042.72
2019-04-04T19:30:50.682Z,99049.32
2019-04-04T19:33:54.326Z,99046.94
2019-04-04T19:36:57.991Z,99051.11
2019-04-04T19:40:01.819Z,99047.97
2019-04-04T19:43:17.596Z,99059.58
2019-04-04T19:46:11.530Z,99066.82
2019-04-04T19:49:15.321Z,99065.29
2019-04-04T19:52:19.019Z,99068.30
2019-04-04T19:55:23.203Z,99072.22
2019-04-04T19:58:26.844Z,99070.90
2019-04-04T20:01:30.472Z,99075.83
2019-04-04T20:04:34.357Z,99074.13
2019-04-04T20:07:38.369Z,99070.72
2019-04-04T20:10:42.254Z,99071.44
2019-04-04T20:13:45.914Z,99073.22
2019-04-04T20:16:50.182Z,99081.05
2019-04-04T20:19:54.353Z,99080.88
2019-04-04T20:22:58.252Z,99085.38
2019-04-04T20:26:02.273Z,99094.77
2019-04-04T20:29:06.148Z,99095.49
2019-04-04T20:32:09.947Z,99090.58
2019-04-04T20:35:14.005Z,99093.58
2019-04-04T20:38:17.655Z,99092.50
2019-04-04T20:41:21.466Z,99102.75
2019-04-04T20:44:25.229Z,99091.75
2019-04-04T20:47:28.983Z,99099.25
2019-04-04T20:50:32.598Z,99100.89
2019-04-04T20:53:36.881Z,99103.48
2019-04-04T20:56:40.522Z,99098.72
2019-04-04T20:59:44.239Z,99107.48
2019-04-04T21:02:47.822Z,99110.08
2019-04-04T21:05:51.894Z,99113.05
2019-04-04T21:08:55.671Z,99114.14
2019-04-04T21:11:59.355Z,99119.83
2019-04-04T21:15:03.143Z,99124.55
2019-04-04T21:18:06.944Z,99124.87
2019-04-04T21:21:10.790Z,99117.47
2019-04-04T21:24:14.925Z,99126.36
2019-04-04T21:27:19.127Z,99127.37
2019-04-04T21:30:24.543Z,99122.36
2019-04-04T21:33:28.177Z,99134.03
2019-04-04T21:36:31.848Z,99125.89
2019-04-04T21:39:35.538Z,99129.25
2019-04-04T21:42:39.295Z,99132.27
2019-04-04T21:45:43.030Z,99131.71
2019-04-04T21:48:46.737Z,99132.03
2019-04-04T21:51:50.383Z,99135.73
2019-04-04T21:54:54.200Z,99144.69
2019-04-04T21:57:58.182Z,99144.55
2019-04-04T22:01:02.391Z,99145.07
2019-04-04T22:04:06.204Z,99136.71
2019-04-04T22:07:10.432Z,99135.21
2019-04-04T22:10:14.231Z,99135.28
2019-04-04T22:13:18.052Z,99138.16
2019-04-04T22:16:21.696Z,99127.78
2019-04-04T22:19:25.492Z,99135.06
2019-04-04T22:22:30.428Z,99135.98
2019-04-04T22:25:34.200Z,99135.73
2019-04-04T22:28:38.064Z,99130.67
2019-04-04T22:31:42.096Z,99133.19
2019-04-04T22:34:45.938Z,99132.64
2019-04-04T22:37:49.839Z,99134.02
2019-04-04T22:40:53.692Z,99130.93
2019-04-04T22:44:03.332Z,99125.67
2019-04-04T22:47:03.115Z,99127.14
2019-04-04T22:50:07.090Z,99123.39
2019-04-04T22:53:10.862Z,99123.39
2019-04-04T22:56:14.664Z,99117.04
2019-04-04T22:59:18.354Z,99119.95
2019-04-04T23:02:22.084Z,99119.59
2019-04-04T23:05:25.712Z,99123.08
2019-04-04T23:08:29.532Z,99116.12
2019-04-04T23:11:33.202Z,99114.80
2019-04-04T23:14:47.287Z,99121.38
2019-04-04T23:17:45.305Z,99121.38
2019-04-04T23:20:47.787Z,99115.83
2019-04-04T23:23:51.412Z,99118.66
2019-04-04T23:26:55.065Z,99113.15
2019-04-04T23:29:58.724Z,99116.08
2019-04-04T23:33:02.321Z,99115.83
2019-04-04T23:36:06.017Z,99116.29
2019-04-04T23:39:09.976Z,99118.63
2019-04-04T23:42:13.698Z,99116.52
2019-04-04T23:45:17.416Z,99115.20
2019-04-04T23:48:21.114Z,99117.97
2019-04-04T23:51:24.786Z,99118.96
2019-04-04T23:54:28.413Z,99123.89
2019-04-04T23:57:32.186Z,99116.70
